Etusivu
METAR-TAF:

METAR-TAF

Lentoasemat :

Fort Resolution, Luoteisterritoriot, Kanada

Leveyspiiri: 61-11N, Pituuspiiri: 113-41W, korkeus merenpinnasta: 164 m

Tämänhetkinen sää

Tämä raportti tehtiin 12 tuntia ja 12 minuuttia sitten, kello 23.00 UTC
Tuuli 7 kn kaakosta
Lämpötila -16°C
Kosteus 71%
Ilmanpaine 1027 hPa
Näkyvyys: 24.1 km
Muutamia pilviä 8000 ft:n korkeudessa
Hajonneita pilviä 11000 ft:n korkeudessa

METAR: CYFR 252300Z 13007KT 15SM FEW080 BKN110 M16/M20 A3034 RMK AC1AC4 /0/63/ SNW CVR/MUCH LOOSE LAST STFD OBS/NEXT261500Z SLP298

Aika: 04:12 (11:12 UTC)


TAF: puuttuu

Säähavainnot ja -ennusteet yli 4000 lentoasemalta (METAR- ja TAF-raportit).

Käytössä olevat sääasemat on merkitty karttaan keltaisilla ja punaisilla pisteillä.

Aseta hiiri pisteen päälle nähdäksesi sääaseman nimen.

Klikkaa sitten nähdäksesi säähavainnot ja -ennusteet.

Kartan vaihtaminen: klikkaa mustalla rastilla varustettuja vihreitä pisteitä, niin voit zoomata sisään; viivalla varustettua vihreää pistettä, niin voit zoomata ulos tai vihreitä nuolia, niin pääset viereisille kartoille.


METAR-TAF: